Terminal Aerodrome Forecast
Issued by NWS Grand Forks, ND

Home | Current Version | Previous Version | Text Only | Print | Product List | Glossary Off
Versions: 1 2 3 4 5 6 7 8 9 10 11 12 13 14 15 16 17 18 19

000
FTUS43 KFGF 201140
TAFFAR
TAF
KFAR 201140Z 2012/2112 36016KT 1SM -SN BLSN OVC015
     FM201500 35011KT 1SM -SN OVC015
     FM201600 34011KT P6SM OVC020
      TEMPO 2016/2019 2SM -SN OVC007
     FM201900 32013KT P6SM BKN040
     FM202200 30009KT P6SM BKN040
     FM210100 27007KT P6SM BKN090
     FM210900 22007KT P6SM FEW250=

USA.gov is the U.S. government's official web portal to all federal, state and local government web resources and services.